sensor_id;sensor_type;location;lat;lon;timestamp;P1;durP1;ratioP1;P2;durP2;ratioP2
46729;SDS011;32476;50.002;11.854;2023-09-08T00:02:09;11.20;;;4.90;;
46729;SDS011;32476;50.002;11.854;2023-09-08T00:04:35;10.57;;;5.10;;
46729;SDS011;32476;50.002;11.854;2023-09-08T00:07:01;7.07;;;4.90;;
46729;SDS011;32476;50.002;11.854;2023-09-08T00:09:28;8.68;;;4.60;;
46729;SDS011;32476;50.002;11.854;2023-09-08T00:11:54;8.77;;;5.07;;
46729;SDS011;32476;50.002;11.854;2023-09-08T00:14:20;7.37;;;5.00;;
46729;SDS011;32476;50.002;11.854;2023-09-08T00:16:48;11.13;;;5.13;;
46729;SDS011;32476;50.002;11.854;2023-09-08T00:19:14;7.32;;;4.50;;
46729;SDS011;32476;50.002;11.854;2023-09-08T00:21:40;5.57;;;4.32;;
46729;SDS011;32476;50.002;11.854;2023-09-08T00:24:09;10.38;;;4.75;;
46729;SDS011;32476;50.002;11.854;2023-09-08T00:26:36;10.52;;;5.28;;
46729;SDS011;32476;50.002;11.854;2023-09-08T00:29:02;12.30;;;4.75;;
46729;SDS011;32476;50.002;11.854;2023-09-08T00:31:29;11.27;;;5.03;;
46729;SDS011;32476;50.002;11.854;2023-09-08T00:33:55;7.78;;;4.75;;
46729;SDS011;32476;50.002;11.854;2023-09-08T00:36:21;6.30;;;4.50;;
46729;SDS011;32476;50.002;11.854;2023-09-08T00:38:48;6.03;;;4.40;;
46729;SDS011;32476;50.002;11.854;2023-09-08T00:41:14;9.50;;;4.80;;
46729;SDS011;32476;50.002;11.854;2023-09-08T00:43:40;7.90;;;4.50;;
46729;SDS011;32476;50.002;11.854;2023-09-08T00:46:08;10.10;;;4.70;;
46729;SDS011;32476;50.002;11.854;2023-09-08T00:48:34;6.88;;;5.05;;
46729;SDS011;32476;50.002;11.854;2023-09-08T00:51:03;11.20;;;4.80;;
46729;SDS011;32476;50.002;11.854;2023-09-08T00:53:32;8.37;;;5.10;;
46729;SDS011;32476;50.002;11.854;2023-09-08T00:55:58;7.50;;;5.00;;
46729;SDS011;32476;50.002;11.854;2023-09-08T00:58:25;11.37;;;5.00;;
46729;SDS011;32476;50.002;11.854;2023-09-08T01:00:53;9.37;;;4.87;;
46729;SDS011;32476;50.002;11.854;2023-09-08T01:03:19;7.83;;;4.93;;
46729;SDS011;32476;50.002;11.854;2023-09-08T01:05:45;7.70;;;5.27;;
46729;SDS011;32476;50.002;11.854;2023-09-08T01:08:13;7.20;;;5.43;;
46729;SDS011;32476;50.002;11.854;2023-09-08T01:10:40;5.73;;;4.70;;
46729;SDS011;32476;50.002;11.854;2023-09-08T01:13:07;6.90;;;4.97;;
46729;SDS011;32476;50.002;11.854;2023-09-08T01:15:35;9.47;;;4.97;;
46729;SDS011;32476;50.002;11.854;2023-09-08T01:18:01;7.27;;;5.10;;
46729;SDS011;32476;50.002;11.854;2023-09-08T01:20:27;7.87;;;5.60;;
46729;SDS011;32476;50.002;11.854;2023-09-08T01:23:28;7.07;;;5.33;;
46729;SDS011;32476;50.002;11.854;2023-09-08T01:26:23;6.83;;;4.73;;
46729;SDS011;32476;50.002;11.854;2023-09-08T01:28:55;8.23;;;5.20;;
46729;SDS011;32476;50.002;11.854;2023-09-08T01:31:22;8.73;;;5.27;;
46729;SDS011;32476;50.002;11.854;2023-09-08T01:33:48;7.20;;;5.57;;
46729;SDS011;32476;50.002;11.854;2023-09-08T01:36:16;6.90;;;5.53;;
46729;SDS011;32476;50.002;11.854;2023-09-08T01:38:42;6.90;;;5.40;;
46729;SDS011;32476;50.002;11.854;2023-09-08T01:41:08;7.80;;;5.47;;
46729;SDS011;32476;50.002;11.854;2023-09-08T01:43:36;7.83;;;5.17;;
46729;SDS011;32476;50.002;11.854;2023-09-08T01:46:02;8.87;;;5.97;;
46729;SDS011;32476;50.002;11.854;2023-09-08T01:48:28;8.53;;;5.73;;
46729;SDS011;32476;50.002;11.854;2023-09-08T01:50:55;12.03;;;5.67;;
46729;SDS011;32476;50.002;11.854;2023-09-08T01:53:21;7.90;;;4.97;;
46729;SDS011;32476;50.002;11.854;2023-09-08T01:55:47;7.90;;;5.33;;
46729;SDS011;32476;50.002;11.854;2023-09-08T01:58:14;11.30;;;5.40;;
46729;SDS011;32476;50.002;11.854;2023-09-08T02:00:40;10.10;;;5.30;;
46729;SDS011;32476;50.002;11.854;2023-09-08T02:03:06;7.67;;;5.10;;
46729;SDS011;32476;50.002;11.854;2023-09-08T02:05:34;5.87;;;5.10;;
46729;SDS011;32476;50.002;11.854;2023-09-08T02:08:04;8.17;;;4.93;;
46729;SDS011;32476;50.002;11.854;2023-09-08T02:10:30;9.77;;;5.27;;
46729;SDS011;32476;50.002;11.854;2023-09-08T02:12:58;7.07;;;5.00;;
46729;SDS011;32476;50.002;11.854;2023-09-08T02:15:24;7.43;;;5.20;;
46729;SDS011;32476;50.002;11.854;2023-09-08T02:17:52;11.10;;;6.13;;
46729;SDS011;32476;50.002;11.854;2023-09-08T02:20:21;7.00;;;5.13;;
46729;SDS011;32476;50.002;11.854;2023-09-08T02:22:49;10.53;;;5.03;;
46729;SDS011;32476;50.002;11.854;2023-09-08T02:25:23;7.67;;;5.40;;
46729;SDS011;32476;50.002;11.854;2023-09-08T02:27:49;8.67;;;4.90;;
46729;SDS011;32476;50.002;11.854;2023-09-08T02:30:15;8.00;;;5.03;;
46729;SDS011;32476;50.002;11.854;2023-09-08T02:32:42;9.03;;;5.40;;
46729;SDS011;32476;50.002;11.854;2023-09-08T02:35:09;9.67;;;5.40;;
46729;SDS011;32476;50.002;11.854;2023-09-08T02:37:35;6.87;;;4.50;;
46729;SDS011;32476;50.002;11.854;2023-09-08T02:40:02;6.97;;;4.90;;
46729;SDS011;32476;50.002;11.854;2023-09-08T02:42:29;8.20;;;4.93;;
46729;SDS011;32476;50.002;11.854;2023-09-08T02:44:54;6.70;;;4.60;;
46729;SDS011;32476;50.002;11.854;2023-09-08T02:47:22;8.03;;;5.17;;
46729;SDS011;32476;50.002;11.854;2023-09-08T02:49:48;7.37;;;4.57;;
46729;SDS011;32476;50.002;11.854;2023-09-08T02:52:14;6.40;;;5.03;;
46729;SDS011;32476;50.002;11.854;2023-09-08T02:54:41;8.73;;;5.07;;
46729;SDS011;32476;50.002;11.854;2023-09-08T02:57:07;7.03;;;5.00;;
46729;SDS011;32476;50.002;11.854;2023-09-08T02:59:33;6.83;;;4.90;;
46729;SDS011;32476;50.002;11.854;2023-09-08T03:02:00;9.73;;;4.70;;
46729;SDS011;32476;50.002;11.854;2023-09-08T03:04:26;8.80;;;4.43;;
46729;SDS011;32476;50.002;11.854;2023-09-08T03:06:52;6.80;;;5.00;;
46729;SDS011;32476;50.002;11.854;2023-09-08T03:09:20;9.27;;;5.47;;
46729;SDS011;32476;50.002;11.854;2023-09-08T03:11:46;10.77;;;5.30;;
46729;SDS011;32476;50.002;11.854;2023-09-08T03:14:12;8.30;;;5.40;;
46729;SDS011;32476;50.002;11.854;2023-09-08T03:16:39;8.00;;;5.77;;
46729;SDS011;32476;50.002;11.854;2023-09-08T03:19:05;6.57;;;5.40;;
46729;SDS011;32476;50.002;11.854;2023-09-08T03:21:31;6.07;;;5.00;;
46729;SDS011;32476;50.002;11.854;2023-09-08T03:23:58;7.80;;;5.00;;
46729;SDS011;32476;50.002;11.854;2023-09-08T03:26:24;7.57;;;4.73;;
46729;SDS011;32476;50.002;11.854;2023-09-08T03:28:50;7.40;;;4.87;;
46729;SDS011;32476;50.002;11.854;2023-09-08T03:31:17;8.63;;;5.37;;
46729;SDS011;32476;50.002;11.854;2023-09-08T03:33:43;9.80;;;5.20;;
46729;SDS011;32476;50.002;11.854;2023-09-08T03:36:09;9.33;;;5.27;;
46729;SDS011;32476;50.002;11.854;2023-09-08T03:38:37;7.63;;;5.77;;
46729;SDS011;32476;50.002;11.854;2023-09-08T03:41:03;11.20;;;5.77;;
46729;SDS011;32476;50.002;11.854;2023-09-08T03:43:29;7.40;;;5.57;;
46729;SDS011;32476;50.002;11.854;2023-09-08T03:45:56;9.20;;;5.37;;
46729;SDS011;32476;50.002;11.854;2023-09-08T03:48:22;6.53;;;5.40;;
46729;SDS011;32476;50.002;11.854;2023-09-08T03:50:48;7.53;;;5.23;;
46729;SDS011;32476;50.002;11.854;2023-09-08T03:53:15;10.30;;;5.80;;
46729;SDS011;32476;50.002;11.854;2023-09-08T03:55:41;7.77;;;5.30;;
46729;SDS011;32476;50.002;11.854;2023-09-08T03:58:07;6.53;;;5.17;;
46729;SDS011;32476;50.002;11.854;2023-09-08T04:00:35;8.70;;;5.50;;
46729;SDS011;32476;50.002;11.854;2023-09-08T04:03:02;6.83;;;5.20;;
46729;SDS011;32476;50.002;11.854;2023-09-08T04:05:28;7.33;;;4.97;;
46729;SDS011;32476;50.002;11.854;2023-09-08T04:07:56;7.70;;;5.50;;
46729;SDS011;32476;50.002;11.854;2023-09-08T04:10:22;10.20;;;5.60;;
46729;SDS011;32476;50.002;11.854;2023-09-08T04:12:48;7.67;;;6.03;;
46729;SDS011;32476;50.002;11.854;2023-09-08T04:15:15;7.70;;;5.63;;
46729;SDS011;32476;50.002;11.854;2023-09-08T04:17:41;10.07;;;5.17;;
46729;SDS011;32476;50.002;11.854;2023-09-08T04:20:07;7.50;;;6.00;;
46729;SDS011;32476;50.002;11.854;2023-09-08T04:22:35;8.97;;;6.17;;
46729;SDS011;32476;50.002;11.854;2023-09-08T04:25:01;9.27;;;5.97;;
46729;SDS011;32476;50.002;11.854;2023-09-08T04:27:29;7.50;;;5.60;;
46729;SDS011;32476;50.002;11.854;2023-09-08T04:29:57;7.53;;;5.30;;
46729;SDS011;32476;50.002;11.854;2023-09-08T04:32:23;9.23;;;5.57;;
46729;SDS011;32476;50.002;11.854;2023-09-08T04:34:49;10.10;;;6.17;;
46729;SDS011;32476;50.002;11.854;2023-09-08T04:37:16;6.87;;;5.20;;
46729;SDS011;32476;50.002;11.854;2023-09-08T04:39:42;8.80;;;5.90;;
46729;SDS011;32476;50.002;11.854;2023-09-08T04:42:09;10.20;;;6.10;;
46729;SDS011;32476;50.002;11.854;2023-09-08T04:44:36;10.20;;;5.33;;
46729;SDS011;32476;50.002;11.854;2023-09-08T04:47:02;8.33;;;5.97;;
46729;SDS011;32476;50.002;11.854;2023-09-08T04:49:29;8.57;;;5.67;;
46729;SDS011;32476;50.002;11.854;2023-09-08T04:51:56;10.53;;;6.03;;
46729;SDS011;32476;50.002;11.854;2023-09-08T04:54:22;9.57;;;6.70;;
46729;SDS011;32476;50.002;11.854;2023-09-08T04:56:51;9.47;;;5.87;;
46729;SDS011;32476;50.002;11.854;2023-09-08T04:59:20;10.20;;;6.40;;
46729;SDS011;32476;50.002;11.854;2023-09-08T05:01:48;9.27;;;6.07;;
46729;SDS011;32476;50.002;11.854;2023-09-08T05:04:16;10.57;;;5.77;;
46729;SDS011;32476;50.002;11.854;2023-09-08T05:06:45;11.77;;;6.80;;
46729;SDS011;32476;50.002;11.854;2023-09-08T05:09:11;8.07;;;6.10;;
46729;SDS011;32476;50.002;11.854;2023-09-08T05:11:37;7.77;;;5.83;;
46729;SDS011;32476;50.002;11.854;2023-09-08T05:14:05;8.53;;;5.80;;
46729;SDS011;32476;50.002;11.854;2023-09-08T05:16:31;9.70;;;6.37;;
46729;SDS011;32476;50.002;11.854;2023-09-08T05:19:12;10.17;;;6.00;;
46729;SDS011;32476;50.002;11.854;2023-09-08T05:21:38;12.00;;;7.10;;
46729;SDS011;32476;50.002;11.854;2023-09-08T05:24:05;10.67;;;6.67;;
46729;SDS011;32476;50.002;11.854;2023-09-08T05:26:33;12.47;;;6.07;;
46729;SDS011;32476;50.002;11.854;2023-09-08T05:29:02;9.47;;;6.50;;
46729;SDS011;32476;50.002;11.854;2023-09-08T05:31:27;10.03;;;6.70;;
46729;SDS011;32476;50.002;11.854;2023-09-08T05:33:55;8.37;;;6.00;;
46729;SDS011;32476;50.002;11.854;2023-09-08T05:36:21;12.43;;;6.60;;
46729;SDS011;32476;50.002;11.854;2023-09-08T05:38:47;8.13;;;6.17;;
46729;SDS011;32476;50.002;11.854;2023-09-08T05:41:14;12.77;;;6.63;;
46729;SDS011;32476;50.002;11.854;2023-09-08T05:43:40;10.17;;;6.03;;
46729;SDS011;32476;50.002;11.854;2023-09-08T05:46:06;9.73;;;6.43;;
46729;SDS011;32476;50.002;11.854;2023-09-08T05:48:33;12.60;;;6.40;;
46729;SDS011;32476;50.002;11.854;2023-09-08T05:50:59;11.03;;;6.17;;
46729;SDS011;32476;50.002;11.854;2023-09-08T05:53:27;8.63;;;5.93;;
46729;SDS011;32476;50.002;11.854;2023-09-08T05:55:54;8.90;;;6.23;;
46729;SDS011;32476;50.002;11.854;2023-09-08T05:58:20;8.70;;;5.90;;
46729;SDS011;32476;50.002;11.854;2023-09-08T06:00:46;6.63;;;5.47;;
46729;SDS011;32476;50.002;11.854;2023-09-08T06:03:14;7.70;;;5.33;;
46729;SDS011;32476;50.002;11.854;2023-09-08T06:05:40;9.67;;;6.20;;
46729;SDS011;32476;50.002;11.854;2023-09-08T06:08:06;8.40;;;5.40;;
46729;SDS011;32476;50.002;11.854;2023-09-08T06:10:33;9.73;;;6.37;;
46729;SDS011;32476;50.002;11.854;2023-09-08T06:12:59;16.33;;;5.80;;
46729;SDS011;32476;50.002;11.854;2023-09-08T06:15:26;11.80;;;6.40;;
46729;SDS011;32476;50.002;11.854;2023-09-08T06:17:54;9.33;;;6.23;;
46729;SDS011;32476;50.002;11.854;2023-09-08T06:20:20;11.23;;;6.13;;
46729;SDS011;32476;50.002;11.854;2023-09-08T06:22:46;10.80;;;5.70;;
46729;SDS011;32476;50.002;11.854;2023-09-08T06:25:14;10.57;;;6.20;;
46729;SDS011;32476;50.002;11.854;2023-09-08T06:27:41;11.13;;;6.07;;
46729;SDS011;32476;50.002;11.854;2023-09-08T06:30:07;11.93;;;5.73;;
46729;SDS011;32476;50.002;11.854;2023-09-08T06:32:35;8.37;;;5.77;;
46729;SDS011;32476;50.002;11.854;2023-09-08T06:35:01;8.83;;;5.50;;
46729;SDS011;32476;50.002;11.854;2023-09-08T06:37:28;9.60;;;5.63;;
46729;SDS011;32476;50.002;11.854;2023-09-08T06:39:56;10.70;;;5.53;;
46729;SDS011;32476;50.002;11.854;2023-09-08T06:42:21;7.93;;;5.43;;
46729;SDS011;32476;50.002;11.854;2023-09-08T06:44:47;11.33;;;5.67;;
46729;SDS011;32476;50.002;11.854;2023-09-08T06:47:15;7.43;;;5.32;;
46729;SDS011;32476;50.002;11.854;2023-09-08T06:49:41;7.93;;;5.50;;
46729;SDS011;32476;50.002;11.854;2023-09-08T06:52:07;14.43;;;5.65;;
46729;SDS011;32476;50.002;11.854;2023-09-08T06:54:34;9.05;;;5.38;;
46729;SDS011;32476;50.002;11.854;2023-09-08T06:57:00;9.35;;;5.50;;
46729;SDS011;32476;50.002;11.854;2023-09-08T06:59:26;9.23;;;5.07;;
46729;SDS011;32476;50.002;11.854;2023-09-08T07:01:53;8.13;;;5.78;;
46729;SDS011;32476;50.002;11.854;2023-09-08T07:04:19;8.18;;;5.18;;
46729;SDS011;32476;50.002;11.854;2023-09-08T07:06:45;7.30;;;4.65;;
46729;SDS011;32476;50.002;11.854;2023-09-08T07:09:13;12.98;;;5.55;;
46729;SDS011;32476;50.002;11.854;2023-09-08T07:11:39;7.40;;;5.15;;
46729;SDS011;32476;50.002;11.854;2023-09-08T07:14:05;6.35;;;4.88;;
46729;SDS011;32476;50.002;11.854;2023-09-08T07:16:32;9.77;;;4.65;;
46729;SDS011;32476;50.002;11.854;2023-09-08T07:18:58;7.38;;;4.85;;
46729;SDS011;32476;50.002;11.854;2023-09-08T07:21:26;7.97;;;5.25;;
46729;SDS011;32476;50.002;11.854;2023-09-08T07:23:53;12.07;;;5.20;;
46729;SDS011;32476;50.002;11.854;2023-09-08T07:26:19;8.18;;;4.90;;
46729;SDS011;32476;50.002;11.854;2023-09-08T07:28:45;9.82;;;4.72;;
46729;SDS011;32476;50.002;11.854;2023-09-08T07:31:13;7.32;;;4.65;;
46729;SDS011;32476;50.002;11.854;2023-09-08T07:33:39;9.52;;;4.55;;
46729;SDS011;32476;50.002;11.854;2023-09-08T07:36:05;10.25;;;4.82;;
46729;SDS011;32476;50.002;11.854;2023-09-08T07:38:34;9.13;;;5.30;;
46729;SDS011;32476;50.002;11.854;2023-09-08T07:41:03;11.45;;;5.15;;
46729;SDS011;32476;50.002;11.854;2023-09-08T07:43:29;9.57;;;4.95;;
46729;SDS011;32476;50.002;11.854;2023-09-08T07:45:57;6.72;;;4.63;;
46729;SDS011;32476;50.002;11.854;2023-09-08T07:48:23;9.52;;;4.97;;
46729;SDS011;32476;50.002;11.854;2023-09-08T07:50:49;10.68;;;4.50;;
46729;SDS011;32476;50.002;11.854;2023-09-08T07:53:17;8.73;;;4.78;;
46729;SDS011;32476;50.002;11.854;2023-09-08T07:55:43;8.68;;;4.85;;
46729;SDS011;32476;50.002;11.854;2023-09-08T07:58:08;12.93;;;5.00;;
46729;SDS011;32476;50.002;11.854;2023-09-08T08:00:36;9.20;;;4.57;;
46729;SDS011;32476;50.002;11.854;2023-09-08T08:03:02;9.23;;;4.80;;
46729;SDS011;32476;50.002;11.854;2023-09-08T08:05:28;7.65;;;4.13;;
46729;SDS011;32476;50.002;11.854;2023-09-08T08:07:56;8.18;;;4.55;;
46729;SDS011;32476;50.002;11.854;2023-09-08T08:10:22;7.10;;;4.38;;
46729;SDS011;32476;50.002;11.854;2023-09-08T08:12:48;5.85;;;4.00;;
46729;SDS011;32476;50.002;11.854;2023-09-08T08:15:15;7.70;;;4.57;;
46729;SDS011;32476;50.002;11.854;2023-09-08T08:17:46;7.75;;;4.38;;
46729;SDS011;32476;50.002;11.854;2023-09-08T08:20:12;7.90;;;4.95;;
46729;SDS011;32476;50.002;11.854;2023-09-08T08:22:44;5.97;;;4.80;;
46729;SDS011;32476;50.002;11.854;2023-09-08T08:25:10;8.93;;;5.00;;
46729;SDS011;32476;50.002;11.854;2023-09-08T08:27:38;5.75;;;3.97;;
46729;SDS011;32476;50.002;11.854;2023-09-08T08:30:07;5.95;;;4.68;;
46729;SDS011;32476;50.002;11.854;2023-09-08T08:32:33;7.25;;;4.53;;
46729;SDS011;32476;50.002;11.854;2023-09-08T08:35:00;6.38;;;4.00;;
46729;SDS011;32476;50.002;11.854;2023-09-08T08:37:27;10.15;;;4.43;;
46729;SDS011;32476;50.002;11.854;2023-09-08T08:39:53;8.60;;;4.82;;
46729;SDS011;32476;50.002;11.854;2023-09-08T08:42:20;7.95;;;4.75;;
46729;SDS011;32476;50.002;11.854;2023-09-08T08:44:49;11.65;;;4.63;;
46729;SDS011;32476;50.002;11.854;2023-09-08T08:47:15;6.82;;;4.70;;
46729;SDS011;32476;50.002;11.854;2023-09-08T08:49:43;14.25;;;4.93;;
46729;SDS011;32476;50.002;11.854;2023-09-08T08:52:13;7.10;;;4.28;;
46729;SDS011;32476;50.002;11.854;2023-09-08T08:54:42;10.20;;;4.35;;
46729;SDS011;32476;50.002;11.854;2023-09-08T08:57:08;10.40;;;4.82;;
46729;SDS011;32476;50.002;11.854;2023-09-08T08:59:36;6.82;;;4.03;;
46729;SDS011;32476;50.002;11.854;2023-09-08T09:02:02;9.85;;;4.53;;
46729;SDS011;32476;50.002;11.854;2023-09-08T09:04:31;9.88;;;4.70;;
46729;SDS011;32476;50.002;11.854;2023-09-08T09:06:57;8.70;;;4.65;;
46729;SDS011;32476;50.002;11.854;2023-09-08T09:09:25;11.52;;;4.90;;
46729;SDS011;32476;50.002;11.854;2023-09-08T09:11:53;9.73;;;4.50;;
46729;SDS011;32476;50.002;11.854;2023-09-08T09:14:19;9.70;;;4.75;;
46729;SDS011;32476;50.002;11.854;2023-09-08T09:16:45;11.20;;;4.38;;
46729;SDS011;32476;50.002;11.854;2023-09-08T09:19:18;9.43;;;4.22;;
46729;SDS011;32476;50.002;11.854;2023-09-08T09:21:51;12.38;;;5.00;;
46729;SDS011;32476;50.002;11.854;2023-09-08T09:24:34;8.05;;;4.30;;
46729;SDS011;32476;50.002;11.854;2023-09-08T09:27:09;7.38;;;4.45;;
46729;SDS011;32476;50.002;11.854;2023-09-08T09:29:47;4.97;;;4.15;;
46729;SDS011;32476;50.002;11.854;2023-09-08T09:32:15;8.20;;;3.95;;
46729;SDS011;32476;50.002;11.854;2023-09-08T09:34:47;10.50;;;4.55;;
46729;SDS011;32476;50.002;11.854;2023-09-08T09:37:16;7.78;;;4.22;;
46729;SDS011;32476;50.002;11.854;2023-09-08T09:39:45;13.13;;;4.45;;
46729;SDS011;32476;50.002;11.854;2023-09-08T09:42:20;7.25;;;4.40;;
46729;SDS011;32476;50.002;11.854;2023-09-08T09:44:48;9.82;;;4.47;;
46729;SDS011;32476;50.002;11.854;2023-09-08T09:47:17;9.73;;;5.00;;
46729;SDS011;32476;50.002;11.854;2023-09-08T09:49:45;8.75;;;4.50;;
46729;SDS011;32476;50.002;11.854;2023-09-08T09:52:22;11.00;;;4.18;;
46729;SDS011;32476;50.002;11.854;2023-09-08T09:54:52;5.20;;;4.20;;
46729;SDS011;32476;50.002;11.854;2023-09-08T09:57:21;7.05;;;4.40;;
46729;SDS011;32476;50.002;11.854;2023-09-08T09:59:48;6.95;;;4.38;;
46729;SDS011;32476;50.002;11.854;2023-09-08T10:02:16;8.13;;;4.78;;
46729;SDS011;32476;50.002;11.854;2023-09-08T10:04:48;6.63;;;4.28;;
46729;SDS011;32476;50.002;11.854;2023-09-08T10:07:18;7.75;;;4.40;;
46729;SDS011;32476;50.002;11.854;2023-09-08T10:09:44;14.80;;;5.20;;
46729;SDS011;32476;50.002;11.854;2023-09-08T10:12:13;9.38;;;4.00;;
46729;SDS011;32476;50.002;11.854;2023-09-08T10:14:43;10.07;;;4.40;;
46729;SDS011;32476;50.002;11.854;2023-09-08T10:17:12;7.35;;;4.30;;
46729;SDS011;32476;50.002;11.854;2023-09-08T10:19:47;7.30;;;4.20;;
46729;SDS011;32476;50.002;11.854;2023-09-08T10:22:19;5.03;;;3.85;;
46729;SDS011;32476;50.002;11.854;2023-09-08T10:24:50;7.80;;;3.83;;
46729;SDS011;32476;50.002;11.854;2023-09-08T10:27:19;10.30;;;4.80;;
46729;SDS011;32476;50.002;11.854;2023-09-08T10:29:46;10.93;;;4.30;;
46729;SDS011;32476;50.002;11.854;2023-09-08T10:32:15;6.70;;;4.22;;
46729;SDS011;32476;50.002;11.854;2023-09-08T10:34:43;9.77;;;4.45;;
46729;SDS011;32476;50.002;11.854;2023-09-08T10:37:21;7.00;;;4.10;;
46729;SDS011;32476;50.002;11.854;2023-09-08T10:39:52;7.20;;;4.47;;
46729;SDS011;32476;50.002;11.854;2023-09-08T10:45:13;5.93;;;4.00;;
46729;SDS011;32476;50.002;11.854;2023-09-08T10:50:25;5.97;;;4.80;;
46729;SDS011;32476;50.002;11.854;2023-09-08T10:53:04;5.03;;;3.85;;
46729;SDS011;32476;50.002;11.854;2023-09-08T10:55:41;6.55;;;3.65;;
46729;SDS011;32476;50.002;11.854;2023-09-08T10:58:10;5.05;;;3.70;;
46729;SDS011;32476;50.002;11.854;2023-09-08T11:00:46;5.60;;;3.97;;
46729;SDS011;32476;50.002;11.854;2023-09-08T11:03:28;7.10;;;3.80;;
46729;SDS011;32476;50.002;11.854;2023-09-08T11:06:09;4.05;;;3.30;;
46729;SDS011;32476;50.002;11.854;2023-09-08T11:08:40;5.50;;;3.85;;
46729;SDS011;32476;50.002;11.854;2023-09-08T11:11:10;5.03;;;3.45;;
46729;SDS011;32476;50.002;11.854;2023-09-08T11:13:39;4.50;;;3.60;;
46729;SDS011;32476;50.002;11.854;2023-09-08T11:16:05;4.85;;;3.28;;
46729;SDS011;32476;50.002;11.854;2023-09-08T11:18:32;5.53;;;3.50;;
46729;SDS011;32476;50.002;11.854;2023-09-08T11:21:01;5.20;;;3.20;;
46729;SDS011;32476;50.002;11.854;2023-09-08T11:23:32;5.18;;;3.58;;
46729;SDS011;32476;50.002;11.854;2023-09-08T11:25:58;3.58;;;3.28;;
46729;SDS011;32476;50.002;11.854;2023-09-08T11:28:27;3.78;;;3.10;;
46729;SDS011;32476;50.002;11.854;2023-09-08T11:30:54;6.88;;;3.42;;
46729;SDS011;32476;50.002;11.854;2023-09-08T11:33:21;4.55;;;3.20;;
46729;SDS011;32476;50.002;11.854;2023-09-08T11:35:52;5.13;;;2.95;;
46729;SDS011;32476;50.002;11.854;2023-09-08T11:38:25;8.98;;;3.15;;
46729;SDS011;32476;50.002;11.854;2023-09-08T11:40:54;6.40;;;3.35;;
46729;SDS011;32476;50.002;11.854;2023-09-08T11:43:23;4.75;;;3.03;;
46729;SDS011;32476;50.002;11.854;2023-09-08T11:45:52;5.57;;;3.28;;
46729;SDS011;32476;50.002;11.854;2023-09-08T11:48:20;7.10;;;3.33;;
46729;SDS011;32476;50.002;11.854;2023-09-08T11:50:46;3.83;;;3.13;;
46729;SDS011;32476;50.002;11.854;2023-09-08T11:53:12;3.70;;;2.88;;
46729;SDS011;32476;50.002;11.854;2023-09-08T11:55:39;3.25;;;2.60;;
46729;SDS011;32476;50.002;11.854;2023-09-08T11:58:05;4.32;;;2.70;;
46729;SDS011;32476;50.002;11.854;2023-09-08T12:00:32;3.22;;;2.92;;
46729;SDS011;32476;50.002;11.854;2023-09-08T12:03:10;3.42;;;3.03;;
46729;SDS011;32476;50.002;11.854;2023-09-08T12:05:37;4.03;;;3.05;;
46729;SDS011;32476;50.002;11.854;2023-09-08T12:08:05;5.28;;;3.10;;
46729;SDS011;32476;50.002;11.854;2023-09-08T12:10:38;3.58;;;2.90;;
46729;SDS011;32476;50.002;11.854;2023-09-08T12:13:09;5.18;;;3.17;;
46729;SDS011;32476;50.002;11.854;2023-09-08T12:15:37;7.35;;;3.17;;
46729;SDS011;32476;50.002;11.854;2023-09-08T12:18:08;5.13;;;2.63;;
46729;SDS011;32476;50.002;11.854;2023-09-08T12:20:38;2.63;;;2.40;;
46729;SDS011;32476;50.002;11.854;2023-09-08T12:23:14;3.67;;;2.92;;
46729;SDS011;32476;50.002;11.854;2023-09-08T12:25:51;3.88;;;2.97;;
46729;SDS011;32476;50.002;11.854;2023-09-08T12:28:18;5.53;;;3.33;;
46729;SDS011;32476;50.002;11.854;2023-09-08T12:30:45;5.85;;;2.55;;
46729;SDS011;32476;50.002;11.854;2023-09-08T12:33:13;5.70;;;3.20;;
46729;SDS011;32476;50.002;11.854;2023-09-08T12:35:45;3.75;;;3.25;;
46729;SDS011;32476;50.002;11.854;2023-09-08T12:38:17;5.80;;;2.95;;
46729;SDS011;32476;50.002;11.854;2023-09-08T12:40:44;4.05;;;3.00;;
46729;SDS011;32476;50.002;11.854;2023-09-08T12:43:10;3.85;;;2.95;;
46729;SDS011;32476;50.002;11.854;2023-09-08T12:45:37;6.30;;;3.45;;
46729;SDS011;32476;50.002;11.854;2023-09-08T12:48:03;5.28;;;3.25;;
46729;SDS011;32476;50.002;11.854;2023-09-08T12:50:32;4.18;;;3.08;;
46729;SDS011;32476;50.002;11.854;2023-09-08T12:52:59;5.15;;;3.03;;
46729;SDS011;32476;50.002;11.854;2023-09-08T12:55:25;6.38;;;3.15;;
46729;SDS011;32476;50.002;11.854;2023-09-08T12:57:51;5.70;;;2.55;;
46729;SDS011;32476;50.002;11.854;2023-09-08T13:00:22;5.63;;;2.80;;
46729;SDS011;32476;50.002;11.854;2023-09-08T13:02:48;6.18;;;3.08;;
46729;SDS011;32476;50.002;11.854;2023-09-08T13:05:15;5.22;;;3.13;;
46729;SDS011;32476;50.002;11.854;2023-09-08T13:07:42;3.80;;;3.10;;
46729;SDS011;32476;50.002;11.854;2023-09-08T13:10:08;5.78;;;3.13;;
46729;SDS011;32476;50.002;11.854;2023-09-08T13:12:34;9.18;;;3.22;;
46729;SDS011;32476;50.002;11.854;2023-09-08T13:15:02;4.95;;;3.30;;
46729;SDS011;32476;50.002;11.854;2023-09-08T13:17:28;3.78;;;2.97;;
46729;SDS011;32476;50.002;11.854;2023-09-08T13:19:54;5.22;;;3.40;;
46729;SDS011;32476;50.002;11.854;2023-09-08T13:22:22;5.65;;;3.28;;
46729;SDS011;32476;50.002;11.854;2023-09-08T13:24:48;5.07;;;3.30;;
46729;SDS011;32476;50.002;11.854;2023-09-08T13:27:14;5.25;;;3.13;;
46729;SDS011;32476;50.002;11.854;2023-09-08T13:29:44;6.55;;;3.28;;
46729;SDS011;32476;50.002;11.854;2023-09-08T13:32:10;9.10;;;3.58;;
46729;SDS011;32476;50.002;11.854;2023-09-08T13:34:36;4.35;;;3.15;;
46729;SDS011;32476;50.002;11.854;2023-09-08T13:37:05;4.00;;;3.25;;
46729;SDS011;32476;50.002;11.854;2023-09-08T13:39:31;5.88;;;3.40;;
46729;SDS011;32476;50.002;11.854;2023-09-08T13:41:59;4.50;;;3.33;;
46729;SDS011;32476;50.002;11.854;2023-09-08T13:44:28;7.07;;;3.20;;
46729;SDS011;32476;50.002;11.854;2023-09-08T13:46:54;3.95;;;3.20;;
46729;SDS011;32476;50.002;11.854;2023-09-08T13:49:20;7.13;;;3.28;;
46729;SDS011;32476;50.002;11.854;2023-09-08T13:51:49;7.00;;;3.58;;
46729;SDS011;32476;50.002;11.854;2023-09-08T13:54:17;3.67;;;3.25;;
46729;SDS011;32476;50.002;11.854;2023-09-08T13:56:43;3.72;;;3.17;;
46729;SDS011;32476;50.002;11.854;2023-09-08T13:59:10;6.10;;;3.58;;
46729;SDS011;32476;50.002;11.854;2023-09-08T14:01:36;5.28;;;3.40;;
46729;SDS011;32476;50.002;11.854;2023-09-08T14:04:03;5.88;;;3.53;;
46729;SDS011;32476;50.002;11.854;2023-09-08T14:06:33;4.20;;;3.50;;
46729;SDS011;32476;50.002;11.854;2023-09-08T14:08:59;6.90;;;3.50;;
46729;SDS011;32476;50.002;11.854;2023-09-08T14:11:25;5.32;;;3.70;;
46729;SDS011;32476;50.002;11.854;2023-09-08T14:13:53;4.63;;;3.00;;
46729;SDS011;32476;50.002;11.854;2023-09-08T14:16:19;6.47;;;3.30;;
46729;SDS011;32476;50.002;11.854;2023-09-08T14:18:45;7.22;;;2.88;;
46729;SDS011;32476;50.002;11.854;2023-09-08T14:21:13;4.10;;;3.70;;
46729;SDS011;32476;50.002;11.854;2023-09-08T14:23:39;8.38;;;3.67;;
46729;SDS011;32476;50.002;11.854;2023-09-08T14:26:06;5.15;;;3.20;;
46729;SDS011;32476;50.002;11.854;2023-09-08T14:28:35;4.43;;;3.25;;
46729;SDS011;32476;50.002;11.854;2023-09-08T14:31:01;4.25;;;3.15;;
46729;SDS011;32476;50.002;11.854;2023-09-08T14:33:27;4.68;;;3.53;;
46729;SDS011;32476;50.002;11.854;2023-09-08T14:35:55;5.18;;;3.40;;
46729;SDS011;32476;50.002;11.854;2023-09-08T14:38:21;5.20;;;3.20;;
46729;SDS011;32476;50.002;11.854;2023-09-08T14:40:58;3.67;;;3.22;;